Blackheath, United Kingdom
Current Conditions -  °F | °C
As of 7:20 PM on Thursday 18 Dec 2014 (Local Time) from EGLC Reporting Station
Broken Clouds Broken Clouds  
Wind Chill: 14°   Ceiling: 1800
Heat Index: 14°   Visibility: 6mi
Dew Point: 10°   Wind: 20mph
Humidity: 77%   Direction: 250°WSW
Pressure: 29.83"   Gusts: NA
Location:  51.46°N, 0.01°E
Report Text: EGLC 181920Z 25017KT 9999 BKN018 14/10 Q1010
Loading
Personal Weather Stations






























Interactive Weather Map New forecast layout! Learn more

10-Day Weather Forecast

Advertisements
Track Severe Weather on mobile